sensor_id;sensor_type;location;lat;lon;timestamp;temperature;humidity
6373;DHT22;3219;51.362;7.074;2023-11-19T00:59:53;10.40;99.90
6373;DHT22;3219;51.362;7.074;2023-11-19T01:02:19;10.50;99.90
6373;DHT22;3219;51.362;7.074;2023-11-19T01:04:46;10.40;99.90
6373;DHT22;3219;51.362;7.074;2023-11-19T01:07:13;10.50;99.90
6373;DHT22;3219;51.362;7.074;2023-11-19T01:09:41;10.50;99.90
6373;DHT22;3219;51.362;7.074;2023-11-19T01:12:07;10.50;99.90
6373;DHT22;3219;51.362;7.074;2023-11-19T01:17:03;10.50;99.90
6373;DHT22;3219;51.362;7.074;2023-11-19T01:19:30;10.50;99.90
6373;DHT22;3219;51.362;7.074;2023-11-19T01:21:56;10.50;99.90
6373;DHT22;3219;51.362;7.074;2023-11-19T01:24:23;10.50;99.90
6373;DHT22;3219;51.362;7.074;2023-11-19T01:26:50;10.50;99.90
6373;DHT22;3219;51.362;7.074;2023-11-19T01:29:18;10.50;99.90
6373;DHT22;3219;51.362;7.074;2023-11-19T01:31:46;11.30;99.90
6373;DHT22;3219;51.362;7.074;2023-11-19T01:34:13;10.50;99.90
6373;DHT22;3219;51.362;7.074;2023-11-19T01:36:40;10.60;99.90
6373;DHT22;3219;51.362;7.074;2023-11-19T01:39:07;10.50;99.90
6373;DHT22;3219;51.362;7.074;2023-11-19T01:41:34;10.60;99.90
6373;DHT22;3219;51.362;7.074;2023-11-19T01:44:01;10.60;99.90
6373;DHT22;3219;51.362;7.074;2023-11-19T01:46:27;10.60;99.90
6373;DHT22;3219;51.362;7.074;2023-11-19T01:48:54;10.70;99.90
6373;DHT22;3219;51.362;7.074;2023-11-19T01:51:22;10.70;99.90
6373;DHT22;3219;51.362;7.074;2023-11-19T01:53:48;10.70;99.90
6373;DHT22;3219;51.362;7.074;2023-11-19T01:56:15;10.70;99.90
6373;DHT22;3219;51.362;7.074;2023-11-19T01:58:42;10.80;99.90
6373;DHT22;3219;51.362;7.074;2023-11-19T02:01:10;10.80;99.90
6373;DHT22;3219;51.362;7.074;2023-11-19T02:03:37;10.80;99.90
6373;DHT22;3219;51.362;7.074;2023-11-19T02:06:05;10.90;99.90
6373;DHT22;3219;51.362;7.074;2023-11-19T02:08:33;10.90;99.90
6373;DHT22;3219;51.362;7.074;2023-11-19T02:11:00;10.90;99.90
6373;DHT22;3219;51.362;7.074;2023-11-19T02:13:27;10.90;99.90
6373;DHT22;3219;51.362;7.074;2023-11-19T02:15:53;10.90;99.90
6373;DHT22;3219;51.362;7.074;2023-11-19T02:18:20;10.90;99.90
6373;DHT22;3219;51.362;7.074;2023-11-19T02:20:47;10.90;99.90
6373;DHT22;3219;51.362;7.074;2023-11-19T02:23:14;10.90;99.90
6373;DHT22;3219;51.362;7.074;2023-11-19T02:25:43;11.00;99.90
6373;DHT22;3219;51.362;7.074;2023-11-19T02:28:13;11.00;99.90
6373;DHT22;3219;51.362;7.074;2023-11-19T02:30:40;11.00;99.90
6373;DHT22;3219;51.362;7.074;2023-11-19T02:33:06;11.00;99.90
6373;DHT22;3219;51.362;7.074;2023-11-19T02:35:33;11.00;99.90
6373;DHT22;3219;51.362;7.074;2023-11-19T02:38:00;11.00;99.90
6373;DHT22;3219;51.362;7.074;2023-11-19T02:40:29;11.00;99.90
6373;DHT22;3219;51.362;7.074;2023-11-19T02:42:55;11.00;99.90
6373;DHT22;3219;51.362;7.074;2023-11-19T02:45:24;11.00;99.90
6373;DHT22;3219;51.362;7.074;2023-11-19T02:47:51;11.00;99.90
6373;DHT22;3219;51.362;7.074;2023-11-19T02:50:18;11.10;99.90
6373;DHT22;3219;51.362;7.074;2023-11-19T02:52:51;9.80;99.90
6373;DHT22;3219;51.362;7.074;2023-11-19T02:55:17;11.10;99.90
6373;DHT22;3219;51.362;7.074;2023-11-19T02:57:44;11.10;99.90
6373;DHT22;3219;51.362;7.074;2023-11-19T03:00:14;11.10;99.90
6373;DHT22;3219;51.362;7.074;2023-11-19T03:02:42;11.20;99.90
6373;DHT22;3219;51.362;7.074;2023-11-19T03:05:11;11.10;99.90
6373;DHT22;3219;51.362;7.074;2023-11-19T03:10:08;11.20;99.90
6373;DHT22;3219;51.362;7.074;2023-11-19T03:12:37;11.30;99.90
6373;DHT22;3219;51.362;7.074;2023-11-19T03:17:32;11.30;99.90
6373;DHT22;3219;51.362;7.074;2023-11-19T03:20:00;11.40;99.90
6373;DHT22;3219;51.362;7.074;2023-11-19T03:32:18;11.30;99.90
6373;DHT22;3219;51.362;7.074;2023-11-19T03:37:15;10.90;99.90
6373;DHT22;3219;51.362;7.074;2023-11-19T03:39:42;11.30;99.90
6373;DHT22;3219;51.362;7.074;2023-11-19T03:42:09;11.30;99.90
6373;DHT22;3219;51.362;7.074;2023-11-19T03:44:37;11.30;99.90
6373;DHT22;3219;51.362;7.074;2023-11-19T03:47:03;11.30;99.90
6373;DHT22;3219;51.362;7.074;2023-11-19T03:49:30;11.30;99.90
6373;DHT22;3219;51.362;7.074;2023-11-19T03:51:57;11.30;99.90
6373;DHT22;3219;51.362;7.074;2023-11-19T03:54:26;11.30;99.90
6373;DHT22;3219;51.362;7.074;2023-11-19T03:56:53;11.30;99.90
6373;DHT22;3219;51.362;7.074;2023-11-19T03:59:19;11.30;99.90
6373;DHT22;3219;51.362;7.074;2023-11-19T04:01:46;11.30;99.90
6373;DHT22;3219;51.362;7.074;2023-11-19T04:04:13;11.30;99.90
6373;DHT22;3219;51.362;7.074;2023-11-19T04:06:39;11.30;99.90
6373;DHT22;3219;51.362;7.074;2023-11-19T04:09:06;11.20;99.90
6373;DHT22;3219;51.362;7.074;2023-11-19T04:11:35;11.20;99.90
6373;DHT22;3219;51.362;7.074;2023-11-19T04:14:01;11.20;99.90
6373;DHT22;3219;51.362;7.074;2023-11-19T04:16:28;11.20;99.90
6373;DHT22;3219;51.362;7.074;2023-11-19T04:18:55;11.20;99.90
6373;DHT22;3219;51.362;7.074;2023-11-19T04:21:21;11.20;99.90
6373;DHT22;3219;51.362;7.074;2023-11-19T04:23:49;11.10;99.90
6373;DHT22;3219;51.362;7.074;2023-11-19T04:26:15;11.10;99.90
6373;DHT22;3219;51.362;7.074;2023-11-19T04:28:43;11.10;99.90
6373;DHT22;3219;51.362;7.074;2023-11-19T04:31:10;11.10;99.90
6373;DHT22;3219;51.362;7.074;2023-11-19T04:33:36;11.10;99.90
6373;DHT22;3219;51.362;7.074;2023-11-19T04:36:03;11.10;99.90
6373;DHT22;3219;51.362;7.074;2023-11-19T04:38:30;11.00;99.90
6373;DHT22;3219;51.362;7.074;2023-11-19T04:40:56;11.00;99.90
6373;DHT22;3219;51.362;7.074;2023-11-19T04:43:23;11.00;99.90
6373;DHT22;3219;51.362;7.074;2023-11-19T04:45:51;10.90;99.90
6373;DHT22;3219;51.362;7.074;2023-11-19T04:48:18;11.00;99.90
6373;DHT22;3219;51.362;7.074;2023-11-19T04:50:44;11.00;99.90
6373;DHT22;3219;51.362;7.074;2023-11-19T04:53:11;11.00;99.90
6373;DHT22;3219;51.362;7.074;2023-11-19T04:55:38;11.00;99.90
6373;DHT22;3219;51.362;7.074;2023-11-19T04:58:04;11.00;99.90
6373;DHT22;3219;51.362;7.074;2023-11-19T05:00:31;11.00;99.90
6373;DHT22;3219;51.362;7.074;2023-11-19T05:02:59;10.90;99.90
6373;DHT22;3219;51.362;7.074;2023-11-19T05:05:25;10.90;99.90
6373;DHT22;3219;51.362;7.074;2023-11-19T05:07:52;10.90;99.90
6373;DHT22;3219;51.362;7.074;2023-11-19T05:10:19;10.90;99.90
6373;DHT22;3219;51.362;7.074;2023-11-19T05:12:45;10.90;99.90
6373;DHT22;3219;51.362;7.074;2023-11-19T05:15:12;10.90;99.90
6373;DHT22;3219;51.362;7.074;2023-11-19T05:17:39;10.90;99.90
6373;DHT22;3219;51.362;7.074;2023-11-19T05:20:08;11.00;99.90
6373;DHT22;3219;51.362;7.074;2023-11-19T05:22:38;10.90;99.90
6373;DHT22;3219;51.362;7.074;2023-11-19T05:25:05;11.00;99.90
6373;DHT22;3219;51.362;7.074;2023-11-19T05:27:32;10.90;99.90
6373;DHT22;3219;51.362;7.074;2023-11-19T05:29:59;10.90;99.90
6373;DHT22;3219;51.362;7.074;2023-11-19T05:32:25;10.90;99.90
6373;DHT22;3219;51.362;7.074;2023-11-19T05:42:16;10.80;99.90
6373;DHT22;3219;51.362;7.074;2023-11-19T05:44:42;10.80;99.90
6373;DHT22;3219;51.362;7.074;2023-11-19T05:47:09;10.90;99.90
6373;DHT22;3219;51.362;7.074;2023-11-19T05:49:36;10.80;99.90
6373;DHT22;3219;51.362;7.074;2023-11-19T05:52:03;10.90;99.90
6373;DHT22;3219;51.362;7.074;2023-11-19T05:54:32;10.90;99.90
6373;DHT22;3219;51.362;7.074;2023-11-19T05:57:03;10.90;99.90
6373;DHT22;3219;51.362;7.074;2023-11-19T05:59:31;10.90;99.90
6373;DHT22;3219;51.362;7.074;2023-11-19T06:01:58;11.00;99.90
6373;DHT22;3219;51.362;7.074;2023-11-19T06:04:25;10.90;99.90
6373;DHT22;3219;51.362;7.074;2023-11-19T06:06:51;10.90;99.90
6373;DHT22;3219;51.362;7.074;2023-11-19T06:09:20;10.90;99.90
6373;DHT22;3219;51.362;7.074;2023-11-19T06:11:48;10.90;99.90
6373;DHT22;3219;51.362;7.074;2023-11-19T06:14:14;10.80;99.90
6373;DHT22;3219;51.362;7.074;2023-11-19T06:16:43;10.90;99.90
6373;DHT22;3219;51.362;7.074;2023-11-19T06:19:09;10.80;99.90
6373;DHT22;3219;51.362;7.074;2023-11-19T06:21:37;10.90;99.90
6373;DHT22;3219;51.362;7.074;2023-11-19T06:24:04;10.80;99.90
6373;DHT22;3219;51.362;7.074;2023-11-19T06:26:30;10.80;99.90
6373;DHT22;3219;51.362;7.074;2023-11-19T06:28:57;10.80;99.90
6373;DHT22;3219;51.362;7.074;2023-11-19T06:31:23;10.80;99.90
6373;DHT22;3219;51.362;7.074;2023-11-19T06:33:52;10.80;99.90
6373;DHT22;3219;51.362;7.074;2023-11-19T06:36:19;10.80;99.90
6373;DHT22;3219;51.362;7.074;2023-11-19T06:43:41;10.70;99.90
6373;DHT22;3219;51.362;7.074;2023-11-19T06:46:14;10.60;99.90
6373;DHT22;3219;51.362;7.074;2023-11-19T06:48:40;10.60;99.90
6373;DHT22;3219;51.362;7.074;2023-11-19T06:51:10;10.60;99.90
6373;DHT22;3219;51.362;7.074;2023-11-19T06:53:38;10.60;99.90
6373;DHT22;3219;51.362;7.074;2023-11-19T06:56:05;10.60;99.90
6373;DHT22;3219;51.362;7.074;2023-11-19T06:58:35;10.60;99.90
6373;DHT22;3219;51.362;7.074;2023-11-19T07:01:02;10.60;99.90
6373;DHT22;3219;51.362;7.074;2023-11-19T07:03:30;10.60;99.90
6373;DHT22;3219;51.362;7.074;2023-11-19T07:05:56;10.60;99.90
6373;DHT22;3219;51.362;7.074;2023-11-19T07:08:26;10.50;99.90
6373;DHT22;3219;51.362;7.074;2023-11-19T07:10:53;10.50;99.90
6373;DHT22;3219;51.362;7.074;2023-11-19T07:13:19;10.50;99.90
6373;DHT22;3219;51.362;7.074;2023-11-19T07:15:46;10.50;99.90
6373;DHT22;3219;51.362;7.074;2023-11-19T07:18:13;10.40;99.90
6373;DHT22;3219;51.362;7.074;2023-11-19T07:20:40;10.40;99.90
6373;DHT22;3219;51.362;7.074;2023-11-19T07:23:07;10.40;99.90
6373;DHT22;3219;51.362;7.074;2023-11-19T07:25:35;10.30;99.90
6373;DHT22;3219;51.362;7.074;2023-11-19T07:28:02;10.40;99.90
6373;DHT22;3219;51.362;7.074;2023-11-19T07:30:30;10.30;99.90
6373;DHT22;3219;51.362;7.074;2023-11-19T07:32:56;10.30;99.90
6373;DHT22;3219;51.362;7.074;2023-11-19T07:35:23;10.30;99.90
6373;DHT22;3219;51.362;7.074;2023-11-19T07:37:50;10.30;99.90
6373;DHT22;3219;51.362;7.074;2023-11-19T07:40:16;10.30;99.90
6373;DHT22;3219;51.362;7.074;2023-11-19T07:42:45;10.30;99.90
6373;DHT22;3219;51.362;7.074;2023-11-19T07:45:12;10.30;99.90
6373;DHT22;3219;51.362;7.074;2023-11-19T07:47:39;10.40;99.90
6373;DHT22;3219;51.362;7.074;2023-11-19T07:50:06;10.40;99.90
6373;DHT22;3219;51.362;7.074;2023-11-19T07:52:33;10.40;99.90
6373;DHT22;3219;51.362;7.074;2023-11-19T07:54:59;10.40;99.90
6373;DHT22;3219;51.362;7.074;2023-11-19T07:57:26;10.50;99.90
6373;DHT22;3219;51.362;7.074;2023-11-19T07:59:57;10.50;99.90
6373;DHT22;3219;51.362;7.074;2023-11-19T08:02:24;10.60;99.90
6373;DHT22;3219;51.362;7.074;2023-11-19T08:04:50;10.80;99.90
6373;DHT22;3219;51.362;7.074;2023-11-19T08:07:20;10.90;99.90
6373;DHT22;3219;51.362;7.074;2023-11-19T08:09:47;11.10;99.90
6373;DHT22;3219;51.362;7.074;2023-11-19T08:12:14;11.20;99.90
6373;DHT22;3219;51.362;7.074;2023-11-19T08:14:42;11.20;99.90
6373;DHT22;3219;51.362;7.074;2023-11-19T08:17:10;11.20;99.90
6373;DHT22;3219;51.362;7.074;2023-11-19T08:19:37;11.30;99.90
6373;DHT22;3219;51.362;7.074;2023-11-19T08:22:04;11.30;99.90
6373;DHT22;3219;51.362;7.074;2023-11-19T08:24:31;11.30;99.90
6373;DHT22;3219;51.362;7.074;2023-11-19T08:26:59;11.30;99.90
6373;DHT22;3219;51.362;7.074;2023-11-19T08:29:25;11.30;99.90
6373;DHT22;3219;51.362;7.074;2023-11-19T08:31:53;11.20;99.90
6373;DHT22;3219;51.362;7.074;2023-11-19T08:34:20;11.20;99.90
6373;DHT22;3219;51.362;7.074;2023-11-19T08:36:49;11.20;99.90
6373;DHT22;3219;51.362;7.074;2023-11-19T08:39:18;11.10;99.90
6373;DHT22;3219;51.362;7.074;2023-11-19T08:41:46;11.10;99.90
6373;DHT22;3219;51.362;7.074;2023-11-19T08:44:13;11.10;99.90
6373;DHT22;3219;51.362;7.074;2023-11-19T08:46:45;11.10;99.90
6373;DHT22;3219;51.362;7.074;2023-11-19T08:49:12;11.10;99.90
6373;DHT22;3219;51.362;7.074;2023-11-19T08:51:40;11.10;99.90
6373;DHT22;3219;51.362;7.074;2023-11-19T08:54:07;11.10;99.90
6373;DHT22;3219;51.362;7.074;2023-11-19T08:56:33;11.10;99.90
6373;DHT22;3219;51.362;7.074;2023-11-19T08:59:01;11.10;99.90
6373;DHT22;3219;51.362;7.074;2023-11-19T09:01:28;11.10;99.90
6373;DHT22;3219;51.362;7.074;2023-11-19T09:03:55;11.00;99.90
6373;DHT22;3219;51.362;7.074;2023-11-19T09:06:22;11.00;99.90
6373;DHT22;3219;51.362;7.074;2023-11-19T09:08:50;11.00;99.90
6373;DHT22;3219;51.362;7.074;2023-11-19T09:11:17;11.00;99.90
6373;DHT22;3219;51.362;7.074;2023-11-19T09:13:44;11.10;99.90
6373;DHT22;3219;51.362;7.074;2023-11-19T09:16:11;11.10;99.90
6373;DHT22;3219;51.362;7.074;2023-11-19T09:18:38;11.10;99.90
6373;DHT22;3219;51.362;7.074;2023-11-19T09:21:04;11.10;99.90
6373;DHT22;3219;51.362;7.074;2023-11-19T09:23:31;11.10;99.90
6373;DHT22;3219;51.362;7.074;2023-11-19T09:26:05;11.10;99.90
6373;DHT22;3219;51.362;7.074;2023-11-19T09:28:32;11.20;99.90
6373;DHT22;3219;51.362;7.074;2023-11-19T09:30:59;11.20;99.90
6373;DHT22;3219;51.362;7.074;2023-11-19T09:33:25;11.20;99.90
6373;DHT22;3219;51.362;7.074;2023-11-19T09:35:52;11.20;99.90
6373;DHT22;3219;51.362;7.074;2023-11-19T09:38:19;11.30;99.90
6373;DHT22;3219;51.362;7.074;2023-11-19T09:40:45;11.30;99.90
6373;DHT22;3219;51.362;7.074;2023-11-19T09:43:14;11.40;99.90
6373;DHT22;3219;51.362;7.074;2023-11-19T09:45:44;11.40;99.90
6373;DHT22;3219;51.362;7.074;2023-11-19T09:48:14;11.40;99.90
6373;DHT22;3219;51.362;7.074;2023-11-19T09:50:41;11.40;99.90
6373;DHT22;3219;51.362;7.074;2023-11-19T09:53:08;11.40;99.90
6373;DHT22;3219;51.362;7.074;2023-11-19T09:55:34;11.40;99.90
6373;DHT22;3219;51.362;7.074;2023-11-19T09:58:01;11.40;99.90
6373;DHT22;3219;51.362;7.074;2023-11-19T10:00:30;11.40;99.90
6373;DHT22;3219;51.362;7.074;2023-11-19T10:02:57;11.40;99.90
6373;DHT22;3219;51.362;7.074;2023-11-19T10:05:23;11.40;99.90
6373;DHT22;3219;51.362;7.074;2023-11-19T10:07:50;11.40;99.90
6373;DHT22;3219;51.362;7.074;2023-11-19T10:10:17;11.40;99.90
6373;DHT22;3219;51.362;7.074;2023-11-19T10:12:44;11.30;99.90
6373;DHT22;3219;51.362;7.074;2023-11-19T10:15:14;11.30;99.90
6373;DHT22;3219;51.362;7.074;2023-11-19T10:17:45;11.20;99.90
6373;DHT22;3219;51.362;7.074;2023-11-19T10:20:11;11.30;99.90
6373;DHT22;3219;51.362;7.074;2023-11-19T10:22:38;11.30;99.90
6373;DHT22;3219;51.362;7.074;2023-11-19T10:25:05;11.40;99.90
6373;DHT22;3219;51.362;7.074;2023-11-19T10:27:47;11.50;99.90
6373;DHT22;3219;51.362;7.074;2023-11-19T10:30:17;11.50;99.90
6373;DHT22;3219;51.362;7.074;2023-11-19T10:32:45;11.50;99.90
6373;DHT22;3219;51.362;7.074;2023-11-19T10:35:11;11.50;99.90
6373;DHT22;3219;51.362;7.074;2023-11-19T10:37:38;11.50;99.90
6373;DHT22;3219;51.362;7.074;2023-11-19T10:40:07;11.50;99.90
6373;DHT22;3219;51.362;7.074;2023-11-19T10:42:35;11.50;99.90
6373;DHT22;3219;51.362;7.074;2023-11-19T10:45:02;11.50;99.90
6373;DHT22;3219;51.362;7.074;2023-11-19T10:47:28;11.50;99.90
6373;DHT22;3219;51.362;7.074;2023-11-19T10:49:57;11.50;99.90
6373;DHT22;3219;51.362;7.074;2023-11-19T10:52:25;11.50;99.90
6373;DHT22;3219;51.362;7.074;2023-11-19T10:54:53;11.50;99.90
6373;DHT22;3219;51.362;7.074;2023-11-19T10:57:22;11.40;99.90
6373;DHT22;3219;51.362;7.074;2023-11-19T10:59:53;11.50;99.90
6373;DHT22;3219;51.362;7.074;2023-11-19T11:02:22;11.40;99.90
6373;DHT22;3219;51.362;7.074;2023-11-19T11:04:51;11.50;99.90
6373;DHT22;3219;51.362;7.074;2023-11-19T11:07:19;11.50;99.90
6373;DHT22;3219;51.362;7.074;2023-11-19T11:09:47;11.50;99.90
6373;DHT22;3219;51.362;7.074;2023-11-19T11:12:14;11.60;99.90
6373;DHT22;3219;51.362;7.074;2023-11-19T11:14:41;11.70;99.90
6373;DHT22;3219;51.362;7.074;2023-11-19T11:17:10;11.70;99.90
6373;DHT22;3219;51.362;7.074;2023-11-19T11:19:38;11.80;99.90
6373;DHT22;3219;51.362;7.074;2023-11-19T11:22:04;11.90;99.90
6373;DHT22;3219;51.362;7.074;2023-11-19T11:24:40;11.90;99.90
6373;DHT22;3219;51.362;7.074;2023-11-19T11:27:17;11.90;99.90
6373;DHT22;3219;51.362;7.074;2023-11-19T11:29:52;11.90;99.90
6373;DHT22;3219;51.362;7.074;2023-11-19T11:32:25;11.90;99.90
6373;DHT22;3219;51.362;7.074;2023-11-19T11:35:02;12.00;99.90
6373;DHT22;3219;51.362;7.074;2023-11-19T11:37:34;12.00;99.90
6373;DHT22;3219;51.362;7.074;2023-11-19T11:40:04;11.90;99.90
6373;DHT22;3219;51.362;7.074;2023-11-19T11:42:35;11.90;99.90
6373;DHT22;3219;51.362;7.074;2023-11-19T11:45:03;11.90;99.90
6373;DHT22;3219;51.362;7.074;2023-11-19T11:50:18;12.00;99.90
6373;DHT22;3219;51.362;7.074;2023-11-19T11:55:34;12.00;99.90
6373;DHT22;3219;51.362;7.074;2023-11-19T11:58:01;12.00;99.90
6373;DHT22;3219;51.362;7.074;2023-11-19T12:00:29;12.00;99.90
6373;DHT22;3219;51.362;7.074;2023-11-19T12:02:56;12.00;99.90
6373;DHT22;3219;51.362;7.074;2023-11-19T12:05:23;11.90;99.90
6373;DHT22;3219;51.362;7.074;2023-11-19T12:07:54;12.00;99.90
6373;DHT22;3219;51.362;7.074;2023-11-19T12:10:21;12.00;99.90
6373;DHT22;3219;51.362;7.074;2023-11-19T12:12:49;12.00;99.90
6373;DHT22;3219;51.362;7.074;2023-11-19T12:15:19;11.90;99.90
6373;DHT22;3219;51.362;7.074;2023-11-19T12:17:50;11.90;99.90
6373;DHT22;3219;51.362;7.074;2023-11-19T12:20:17;11.90;99.90
6373;DHT22;3219;51.362;7.074;2023-11-19T12:22:45;11.90;99.90
6373;DHT22;3219;51.362;7.074;2023-11-19T12:25:12;12.00;99.90
6373;DHT22;3219;51.362;7.074;2023-11-19T12:27:39;12.00;99.90
6373;DHT22;3219;51.362;7.074;2023-11-19T12:30:08;12.00;99.90
6373;DHT22;3219;51.362;7.074;2023-11-19T12:32:40;12.00;99.90
6373;DHT22;3219;51.362;7.074;2023-11-19T12:35:07;12.00;99.90
6373;DHT22;3219;51.362;7.074;2023-11-19T12:37:40;12.00;99.90
6373;DHT22;3219;51.362;7.074;2023-11-19T12:40:10;12.10;99.90
6373;DHT22;3219;51.362;7.074;2023-11-19T12:42:38;12.10;99.90
6373;DHT22;3219;51.362;7.074;2023-11-19T12:45:05;12.20;99.90
6373;DHT22;3219;51.362;7.074;2023-11-19T12:47:33;12.20;99.90
6373;DHT22;3219;51.362;7.074;2023-11-19T12:49:59;12.20;99.90
6373;DHT22;3219;51.362;7.074;2023-11-19T12:52:26;12.10;99.90
6373;DHT22;3219;51.362;7.074;2023-11-19T12:54:53;12.10;99.90
6373;DHT22;3219;51.362;7.074;2023-11-19T12:57:20;12.10;99.90
6373;DHT22;3219;51.362;7.074;2023-11-19T12:59:56;12.00;99.90
6373;DHT22;3219;51.362;7.074;2023-11-19T13:02:22;12.00;99.90
6373;DHT22;3219;51.362;7.074;2023-11-19T13:04:51;11.90;99.90
6373;DHT22;3219;51.362;7.074;2023-11-19T13:07:20;11.80;99.90
6373;DHT22;3219;51.362;7.074;2023-11-19T13:09:47;11.80;99.90
6373;DHT22;3219;51.362;7.074;2023-11-19T13:12:13;11.80;99.90
6373;DHT22;3219;51.362;7.074;2023-11-19T13:14:41;11.70;99.90
6373;DHT22;3219;51.362;7.074;2023-11-19T13:17:12;11.60;99.90
6373;DHT22;3219;51.362;7.074;2023-11-19T13:19:39;11.50;99.90
6373;DHT22;3219;51.362;7.074;2023-11-19T13:22:07;11.40;99.90
6373;DHT22;3219;51.362;7.074;2023-11-19T13:24:33;11.30;99.90
6373;DHT22;3219;51.362;7.074;2023-11-19T13:27:00;11.20;99.90
6373;DHT22;3219;51.362;7.074;2023-11-19T13:29:27;11.10;99.90
6373;DHT22;3219;51.362;7.074;2023-11-19T13:31:53;11.10;99.90
6373;DHT22;3219;51.362;7.074;2023-11-19T13:34:20;11.00;99.90
6373;DHT22;3219;51.362;7.074;2023-11-19T13:36:46;11.00;99.90
6373;DHT22;3219;51.362;7.074;2023-11-19T13:39:14;11.10;99.90
6373;DHT22;3219;51.362;7.074;2023-11-19T13:41:48;11.10;99.90
6373;DHT22;3219;51.362;7.074;2023-11-19T13:44:15;11.10;99.90
6373;DHT22;3219;51.362;7.074;2023-11-19T13:46:44;11.20;99.90
6373;DHT22;3219;51.362;7.074;2023-11-19T13:49:10;11.30;99.90
6373;DHT22;3219;51.362;7.074;2023-11-19T13:51:37;11.30;99.90
6373;DHT22;3219;51.362;7.074;2023-11-19T13:54:03;11.30;99.90
6373;DHT22;3219;51.362;7.074;2023-11-19T13:56:31;11.30;99.90
6373;DHT22;3219;51.362;7.074;2023-11-19T13:58:58;11.30;99.90
6373;DHT22;3219;51.362;7.074;2023-11-19T14:01:25;11.30;99.90
6373;DHT22;3219;51.362;7.074;2023-11-19T14:03:52;11.30;99.90
6373;DHT22;3219;51.362;7.074;2023-11-19T14:06:19;11.20;99.90
6373;DHT22;3219;51.362;7.074;2023-11-19T14:08:46;11.20;99.90
6373;DHT22;3219;51.362;7.074;2023-11-19T14:11:12;11.20;99.90
6373;DHT22;3219;51.362;7.074;2023-11-19T14:13:40;11.20;99.90
6373;DHT22;3219;51.362;7.074;2023-11-19T14:16:07;11.10;99.90
6373;DHT22;3219;51.362;7.074;2023-11-19T14:18:34;11.10;99.90
6373;DHT22;3219;51.362;7.074;2023-11-19T14:21:01;11.10;99.90
6373;DHT22;3219;51.362;7.074;2023-11-19T14:23:28;11.20;99.90
6373;DHT22;3219;51.362;7.074;2023-11-19T14:25:55;11.10;99.90
6373;DHT22;3219;51.362;7.074;2023-11-19T14:28:21;11.10;99.90
6373;DHT22;3219;51.362;7.074;2023-11-19T14:30:50;11.10;99.90
6373;DHT22;3219;51.362;7.074;2023-11-19T14:33:22;11.10;99.90
6373;DHT22;3219;51.362;7.074;2023-11-19T14:35:48;11.00;99.90
6373;DHT22;3219;51.362;7.074;2023-11-19T14:38:15;11.00;99.90
6373;DHT22;3219;51.362;7.074;2023-11-19T14:40:42;11.00;99.90
6373;DHT22;3219;51.362;7.074;2023-11-19T14:43:08;11.00;99.90
6373;DHT22;3219;51.362;7.074;2023-11-19T14:45:35;11.00;99.90
6373;DHT22;3219;51.362;7.074;2023-11-19T14:48:04;11.00;99.90
6373;DHT22;3219;51.362;7.074;2023-11-19T14:50:31;11.00;99.90
6373;DHT22;3219;51.362;7.074;2023-11-19T14:52:58;11.00;99.90
6373;DHT22;3219;51.362;7.074;2023-11-19T15:00:23;10.70;99.90
6373;DHT22;3219;51.362;7.074;2023-11-19T15:02:51;10.90;99.90
6373;DHT22;3219;51.362;7.074;2023-11-19T15:05:19;10.80;99.90
6373;DHT22;3219;51.362;7.074;2023-11-19T15:07:46;10.80;99.90
6373;DHT22;3219;51.362;7.074;2023-11-19T15:10:13;10.80;99.90
6373;DHT22;3219;51.362;7.074;2023-11-19T15:17:39;10.60;99.90
6373;DHT22;3219;51.362;7.074;2023-11-19T15:20:06;10.60;99.90
6373;DHT22;3219;51.362;7.074;2023-11-19T15:22:34;10.50;99.90
6373;DHT22;3219;51.362;7.074;2023-11-19T15:25:01;10.50;99.90
6373;DHT22;3219;51.362;7.074;2023-11-19T15:27:28;10.50;99.90
6373;DHT22;3219;51.362;7.074;2023-11-19T15:29:54;10.50;99.90
6373;DHT22;3219;51.362;7.074;2023-11-19T15:32:23;10.40;99.90
6373;DHT22;3219;51.362;7.074;2023-11-19T15:37:20;10.40;99.90
6373;DHT22;3219;51.362;7.074;2023-11-19T15:39:49;10.40;99.90
6373;DHT22;3219;51.362;7.074;2023-11-19T15:42:16;10.50;99.90
6373;DHT22;3219;51.362;7.074;2023-11-19T15:47:13;10.40;99.90
6373;DHT22;3219;51.362;7.074;2023-11-19T15:49:39;10.40;99.90
6373;DHT22;3219;51.362;7.074;2023-11-19T15:52:06;10.40;99.90
6373;DHT22;3219;51.362;7.074;2023-11-19T15:57:04;10.40;99.90
6373;DHT22;3219;51.362;7.074;2023-11-19T15:59:31;10.40;99.90
6373;DHT22;3219;51.362;7.074;2023-11-19T16:01:57;10.40;99.90
6373;DHT22;3219;51.362;7.074;2023-11-19T16:04:24;10.40;99.90
6373;DHT22;3219;51.362;7.074;2023-11-19T16:06:50;10.40;99.90
6373;DHT22;3219;51.362;7.074;2023-11-19T16:09:17;10.40;99.90
6373;DHT22;3219;51.362;7.074;2023-11-19T16:11:44;10.40;99.90
6373;DHT22;3219;51.362;7.074;2023-11-19T16:14:13;10.40;99.90
6373;DHT22;3219;51.362;7.074;2023-11-19T16:16:40;10.30;99.90
6373;DHT22;3219;51.362;7.074;2023-11-19T16:19:06;10.40;99.90
6373;DHT22;3219;51.362;7.074;2023-11-19T16:21:33;10.40;99.90
6373;DHT22;3219;51.362;7.074;2023-11-19T16:24:02;10.30;99.90
6373;DHT22;3219;51.362;7.074;2023-11-19T16:26:29;10.40;99.90
6373;DHT22;3219;51.362;7.074;2023-11-19T16:28:58;10.40;99.90
6373;DHT22;3219;51.362;7.074;2023-11-19T16:31:26;10.30;99.90
6373;DHT22;3219;51.362;7.074;2023-11-19T16:33:52;10.40;99.90
6373;DHT22;3219;51.362;7.074;2023-11-19T16:36:19;10.30;99.90
6373;DHT22;3219;51.362;7.074;2023-11-19T16:38:45;10.30;99.90
6373;DHT22;3219;51.362;7.074;2023-11-19T16:41:13;10.40;99.90
6373;DHT22;3219;51.362;7.074;2023-11-19T16:43:41;10.30;99.90
6373;DHT22;3219;51.362;7.074;2023-11-19T16:46:08;10.30;99.90
6373;DHT22;3219;51.362;7.074;2023-11-19T16:48:36;10.30;99.90
6373;DHT22;3219;51.362;7.074;2023-11-19T16:51:08;10.30;99.90
6373;DHT22;3219;51.362;7.074;2023-11-19T16:53:34;10.30;99.90
6373;DHT22;3219;51.362;7.074;2023-11-19T16:56:01;10.30;99.90
6373;DHT22;3219;51.362;7.074;2023-11-19T16:58:28;10.30;99.90
6373;DHT22;3219;51.362;7.074;2023-11-19T17:00:55;10.30;99.90
6373;DHT22;3219;51.362;7.074;2023-11-19T17:08:19;10.20;99.90
6373;DHT22;3219;51.362;7.074;2023-11-19T17:10:46;10.20;99.90
6373;DHT22;3219;51.362;7.074;2023-11-19T17:13:14;10.20;99.90
6373;DHT22;3219;51.362;7.074;2023-11-19T17:15:41;10.20;99.90
6373;DHT22;3219;51.362;7.074;2023-11-19T17:18:07;10.20;99.90
6373;DHT22;3219;51.362;7.074;2023-11-19T17:20:35;10.30;99.90
6373;DHT22;3219;51.362;7.074;2023-11-19T17:23:04;10.20;99.90
6373;DHT22;3219;51.362;7.074;2023-11-19T17:25:32;10.20;99.90
6373;DHT22;3219;51.362;7.074;2023-11-19T17:27:58;10.20;99.90
6373;DHT22;3219;51.362;7.074;2023-11-19T17:30:25;10.20;99.90
6373;DHT22;3219;51.362;7.074;2023-11-19T17:32:51;10.20;99.90
6373;DHT22;3219;51.362;7.074;2023-11-19T17:35:18;10.30;99.90
6373;DHT22;3219;51.362;7.074;2023-11-19T17:37:46;10.20;99.90
6373;DHT22;3219;51.362;7.074;2023-11-19T17:40:13;10.20;99.90
6373;DHT22;3219;51.362;7.074;2023-11-19T17:42:43;10.20;99.90
6373;DHT22;3219;51.362;7.074;2023-11-19T17:45:10;10.30;99.90
6373;DHT22;3219;51.362;7.074;2023-11-19T17:47:36;10.30;99.90
6373;DHT22;3219;51.362;7.074;2023-11-19T17:50:03;10.20;99.90
6373;DHT22;3219;51.362;7.074;2023-11-19T17:52:30;10.20;99.90
6373;DHT22;3219;51.362;7.074;2023-11-19T17:54:58;10.20;99.90
6373;DHT22;3219;51.362;7.074;2023-11-19T17:57:24;10.20;99.90
6373;DHT22;3219;51.362;7.074;2023-11-19T17:59:53;10.10;99.90
6373;DHT22;3219;51.362;7.074;2023-11-19T18:02:19;10.10;99.90